Time;durP1;ratioP1;P1;durP2;ratioP2;P2;SDS_P1;SDS_P2;PMS_P1;PMS_P2;Temp;Humidity;BMP_temperature;BMP_pressure;BME280_temperature;BME280_humidity;BME280_pressure;Samples;Min_cycle;Max_cycle;Signal;HPM_P1;HPM_P2
2022/10/28 00:02:16;;;;;;;5.87;3.67;;;;;;;9.11;100.00;100809.53;1772370;81;21027;-75
2022/10/28 00:04:43;;;;;;;6.07;3.83;;;;;;;9.12;100.00;100817.50;1771980;81;21023;-75
2022/10/28 00:07:10;;;;;;;6.73;3.70;;;;;;;9.10;100.00;100815.44;1772076;81;21027;-75
2022/10/28 00:09:36;;;;;;;4.23;3.10;;;;;;;9.10;100.00;100809.17;1772196;81;21046;-74
2022/10/28 00:12:04;;;;;;;5.30;3.47;;;;;;;9.10;100.00;100817.27;1772379;81;20995;-74
2022/10/28 00:14:32;;;;;;;4.57;3.40;;;;;;;9.10;100.00;100817.27;1772431;81;21050;-75
2022/10/28 00:16:59;;;;;;;6.20;3.20;;;;;;;9.10;100.00;100818.14;1772263;81;21059;-74
2022/10/28 00:19:26;;;;;;;4.70;3.27;;;;;;;9.10;100.00;100825.36;1772325;81;21496;-75
2022/10/28 00:21:54;;;;;;;7.63;3.30;;;;;;;9.11;100.00;100824.38;1772470;81;21028;-76
2022/10/28 00:24:21;;;;;;;5.03;3.67;;;;;;;9.12;100.00;100826.09;1772726;81;21046;-76
2022/10/28 00:26:48;;;;;;;4.10;3.20;;;;;;;9.10;100.00;100827.58;1772455;81;20963;-75
2022/10/28 00:29:17;;;;;;;8.27;3.50;;;;;;;9.10;100.00;100828.94;1772352;81;21429;-76
2022/10/28 00:31:43;;;;;;;5.47;3.33;;;;;;;9.11;100.00;100834.66;1753430;80;20990;-76
2022/10/28 00:34:16;;;;;;;9.37;3.73;;;;;;;9.12;100.00;100845.83;1779878;80;21054;-75
2022/10/28 00:36:44;;;;;;;4.47;3.00;;;;;;;9.13;100.00;100842.62;1772770;81;20968;-75
2022/10/28 00:39:20;;;;;;;5.13;3.17;;;;;;;9.13;100.00;100853.41;1772525;81;21039;-75
2022/10/28 00:41:51;;;;;;;6.00;3.70;;;;;;;9.12;100.00;100852.57;1772622;81;21074;-75
2022/10/28 00:44:49;;;;;;;5.33;2.83;;;;;;;9.13;100.00;100860.16;1772432;81;21018;-75
2022/10/28 00:47:31;;;;;;;3.10;2.70;;;;;;;9.13;100.00;100855.61;1772470;80;21504;-74
2022/10/28 00:50:17;;;;;;;7.13;2.90;;;;;;;9.15;100.00;100854.63;1772505;81;21525;-76
2022/10/28 00:52:46;;;;;;;11.17;4.20;;;;;;;9.17;100.00;100857.55;1701925;83;21037;-73
2022/10/28 00:55:14;;;;;;;7.90;3.73;;;;;;;9.18;100.00;100860.59;1677941;84;21094;-75
2022/10/28 00:57:41;;;;;;;8.80;3.87;;;;;;;9.19;100.00;100869.05;1678508;84;21614;-75
2022/10/28 01:00:11;;;;;;;10.90;3.90;;;;;;;9.21;100.00;100877.01;1704111;83;21071;-75
2022/10/28 01:02:48;;;;;;;9.03;3.83;;;;;;;9.21;100.00;100874.31;1714743;83;21052;-75
2022/10/28 01:05:30;;;;;;;7.93;3.47;;;;;;;9.21;100.00;100879.70;1715445;83;21076;-74
2022/10/28 01:08:01;;;;;;;6.63;3.00;;;;;;;9.20;100.00;100882.03;1720762;83;21015;-75
2022/10/28 01:11:04;;;;;;;6.60;3.22;;;;;;;9.21;100.00;100882.41;1720506;82;21104;-76
2022/10/28 01:14:08;;;;;;;5.13;3.10;;;;;;;9.22;100.00;100898.93;1720787;83;21038;-74
2022/10/28 01:17:08;;;;;;;4.80;2.70;;;;;;;9.22;100.00;100901.63;1720682;83;21050;-74
2022/10/28 01:20:20;;;;;;;5.60;3.03;;;;;;;9.23;100.00;100902.84;1720909;83;21057;-74
2022/10/28 01:23:09;;;;;;;2.83;2.63;;;;;;;9.23;100.00;100899.30;1720827;83;21046;-74
2022/10/28 01:26:07;;;;;;;5.47;3.23;;;;;;;9.22;100.00;100901.13;1720447;83;21207;-75
2022/10/28 01:29:16;;;;;;;4.57;2.80;;;;;;;9.22;100.00;100893.54;1721078;83;21058;-75
2022/10/28 01:32:06;;;;;;;3.90;2.70;;;;;;;9.23;100.00;100896.61;1710912;83;21005;-75
2022/10/28 01:34:54;;;;;;;3.43;2.40;;;;;;;9.24;100.00;100900.98;1714772;83;21091;-75
2022/10/28 01:37:32;;;;;;;5.27;2.47;;;;;;;9.24;100.00;100903.69;1713913;84;21013;-75
2022/10/28 01:40:23;;;;;;;3.23;2.60;;;;;;;9.24;100.00;100906.39;1661195;86;21589;-75
2022/10/28 01:43:15;;;;;;;5.93;2.70;;;;;;;9.23;100.00;100904.19;1618146;86;21073;-75
2022/10/28 01:45:53;;;;;;;3.17;2.73;;;;;;;9.24;100.00;100907.27;1618580;89;21513;-75
2022/10/28 01:48:45;;;;;;;3.83;2.97;;;;;;;9.26;100.00;100912.48;1617710;89;21086;-75
2022/10/28 01:51:32;;;;;;;3.30;2.73;;;;;;;9.28;100.00;100911.87;1593863;90;21069;-74
2022/10/28 01:54:00;;;;;;;4.03;2.90;;;;;;;9.28;100.00;100903.28;1591425;90;21078;-75
2022/10/28 01:56:33;;;;;;;4.80;2.63;;;;;;;9.28;100.00;100910.02;1592653;89;21081;-74
2022/10/28 01:59:00;;;;;;;4.40;2.87;;;;;;;9.29;100.00;100908.17;1587695;89;21106;-74
2022/10/28 02:01:28;;;;;;;4.30;3.03;;;;;;;9.30;100.00;100906.68;1565914;90;21599;-75
2022/10/28 02:03:54;;;;;;;4.70;3.20;;;;;;;9.32;100.00;100911.94;1587583;90;21041;-76
2022/10/28 02:06:23;;;;;;;3.17;2.70;;;;;;;9.34;100.00;100917.20;1609857;88;21058;-74
2022/10/28 02:09:22;;;;;;;5.10;2.80;;;;;;;9.35;100.00;100920.23;1619006;89;21051;-75
2022/10/28 02:12:16;;;;;;;4.30;2.80;;;;;;;9.35;100.00;100917.06;1618758;89;21141;-75
2022/10/28 02:15:08;;;;;;;6.95;2.98;;;;;;;9.36;100.00;100912.00;1618685;89;21091;-75
2022/10/28 02:17:55;;;;;;;4.33;2.70;;;;;;;9.36;100.00;100910.66;1620998;87;21066;-76
2022/10/28 02:20:39;;;;;;;4.20;3.00;;;;;;;9.38;100.00;100914.56;1653971;87;21053;-74
2022/10/28 02:23:40;;;;;;;6.87;3.25;;;;;;;9.38;100.00;100918.11;1653807;87;21025;-76
2022/10/28 02:26:39;;;;;;;3.77;3.17;;;;;;;9.38;100.00;100914.56;1620856;88;21123;-75
2022/10/28 02:29:16;;;;;;;4.97;2.70;;;;;;;9.39;100.00;100921.17;1653984;86;21581;-73
2022/10/28 02:31:51;;;;;;;4.83;3.20;;;;;;;9.38;100.00;100908.66;1654123;87;21078;-75
2022/10/28 02:34:26;;;;;;;6.60;3.33;;;;;;;9.39;100.00;100921.17;1653863;87;21061;-75
2022/10/28 02:36:54;;;;;;;4.60;3.03;;;;;;;9.40;100.00;100920.20;1655207;85;20982;-74
2022/10/28 02:39:29;;;;;;;4.27;2.73;;;;;;;9.41;100.00;100919.69;1729687;83;21073;-75
2022/10/28 02:42:09;;;;;;;4.10;3.00;;;;;;;9.43;100.00;100925.79;1730005;83;21081;-75
2022/10/28 02:44:41;;;;;;;4.57;3.10;;;;;;;9.43;100.00;100926.63;1729713;83;21062;-75
2022/10/28 02:47:12;;;;;;;7.77;3.27;;;;;;;9.43;100.00;100930.69;1671521;86;21013;-74
2022/10/28 02:49:42;;;;;;;4.33;3.20;;;;;;;9.44;100.00;100935.61;1671093;86;21081;-75
2022/10/28 02:52:08;;;;;;;4.80;3.20;;;;;;;9.45;100.00;100926.50;1671405;86;21077;-76
2022/10/28 02:54:44;;;;;;;4.47;3.13;;;;;;;9.47;100.00;100932.59;1631938;88;21074;-75
2022/10/28 02:57:17;;;;;;;5.40;3.37;;;;;;;9.47;100.00;100931.25;1633322;87;21491;-75
2022/10/28 02:59:57;;;;;;;5.97;3.10;;;;;;;9.48;100.00;100923.02;1635208;88;21065;-74
2022/10/28 03:02:23;;;;;;;4.60;3.10;;;;;;;9.48;100.00;100927.06;1543091;93;21037;-76
2022/10/28 03:04:50;;;;;;;9.83;3.67;;;;;;;9.49;100.00;100927.43;1542919;93;21053;-75
2022/10/28 03:07:18;;;;;;;5.13;3.27;;;;;;;9.52;100.00;100932.19;1543123;93;21556;-76
2022/10/28 03:09:46;;;;;;;4.30;3.10;;;;;;;9.53;100.00;100929.34;1542878;93;21137;-74
2022/10/28 03:12:13;;;;;;;5.70;3.20;;;;;;;9.54;100.00;100932.39;1542663;93;21096;-75
2022/10/28 03:14:41;;;;;;;4.23;2.90;;;;;;;9.55;100.00;100929.21;1542840;93;21593;-74
2022/10/28 03:17:08;;;;;;;6.75;3.35;;;;;;;9.55;100.00;100923.30;1542561;91;21104;-75
2022/10/28 03:19:34;;;;;;;8.33;3.67;;;;;;;9.56;100.00;100928.20;1543094;93;21120;-74
2022/10/28 03:22:01;;;;;;;9.63;3.80;;;;;;;9.57;100.00;100925.87;1542928;93;21105;-75
2022/10/28 03:24:28;;;;;;;5.80;3.33;;;;;;;9.57;100.00;100924.52;1543147;93;21793;-74
2022/10/28 03:26:55;;;;;;;7.60;3.72;;;;;;;9.56;100.00;100926.84;1557314;91;21114;-75
2022/10/28 03:29:22;;;;;;;4.30;3.30;;;;;;;9.57;100.00;100930.76;1577056;90;21055;-73
2022/10/28 03:31:49;;;;;;;5.23;3.40;;;;;;;9.58;100.00;100924.38;1578822;91;21074;-74
2022/10/28 03:34:16;;;;;;;5.07;3.50;;;;;;;9.58;100.00;100920.80;1577346;91;21042;-76
2022/10/28 03:36:43;;;;;;;5.27;3.20;;;;;;;9.57;100.00;100921.30;1578997;91;21038;-74
2022/10/28 03:39:10;;;;;;;6.55;3.60;;;;;;;9.56;100.00;100924.14;1578918;90;21086;-75
2022/10/28 03:41:38;;;;;;;5.97;3.40;;;;;;;9.55;100.00;100922.46;1577986;91;21080;-75
2022/10/28 03:44:05;;;;;;;5.40;3.37;;;;;;;9.54;100.00;100916.19;1606800;87;21146;-74
2022/10/28 03:46:32;;;;;;;5.28;3.50;;;;;;;9.54;100.00;100925.64;1630943;88;21066;-74
2022/10/28 03:48:59;;;;;;;6.58;3.50;;;;;;;9.53;100.00;100929.34;1634674;88;21030;-74
2022/10/28 03:51:26;;;;;;;4.77;3.23;;;;;;;9.53;100.00;100936.09;1634206;88;21074;-73
2022/10/28 03:53:53;;;;;;;6.27;3.47;;;;;;;9.52;100.00;100932.19;1629876;88;21037;-75
2022/10/28 03:56:20;;;;;;;11.40;4.57;;;;;;;9.50;100.00;100925.06;1642858;86;21141;-75
2022/10/28 03:58:48;;;;;;;6.50;3.53;;;;;;;9.50;100.00;100936.38;1731608;82;21068;-73
2022/10/28 04:01:15;;;;;;;7.87;3.73;;;;;;;9.47;100.00;100925.85;1724830;81;21023;-76
2022/10/28 04:03:42;;;;;;;5.70;3.10;;;;;;;9.46;100.00;100933.11;1710238;84;20999;-75
2022/10/28 04:06:09;;;;;;;7.30;3.20;;;;;;;9.44;100.00;100933.75;1710373;84;21631;-74
2022/10/28 04:08:37;;;;;;;5.53;2.77;;;;;;;9.46;100.00;100943.06;1710208;84;21023;-75
2022/10/28 04:11:03;;;;;;;5.43;3.40;;;;;;;9.45;100.00;100949.44;1710470;83;21070;-75
2022/10/28 04:13:30;;;;;;;6.40;4.63;;;;;;;9.44;100.00;100955.34;1710486;84;21022;-76
2022/10/28 04:16:00;;;;;;;6.50;3.53;;;;;;;9.43;100.00;100956.84;1710283;83;21492;-75
2022/10/28 04:18:27;;;;;;;7.67;3.30;;;;;;;9.42;100.00;100972.19;1710467;84;21180;-75
2022/10/28 04:20:55;;;;;;;4.60;3.47;;;;;;;9.43;100.00;100968.98;1710398;82;21071;-74
2022/10/28 04:23:22;;;;;;;7.07;3.47;;;;;;;9.43;100.00;100969.83;1710227;82;21583;-74
2022/10/28 04:25:53;;;;;;;6.17;3.30;;;;;;;9.41;100.00;100975.87;1710231;83;21065;-74
2022/10/28 04:28:22;;;;;;;7.97;4.00;;;;;;;9.41;100.00;100987.17;1710618;82;21058;-75
2022/10/28 04:30:49;;;;;;;4.57;3.10;;;;;;;9.41;100.00;101007.41;1710635;84;21022;-74
2022/10/28 04:33:16;;;;;;;5.90;2.77;;;;;;;9.41;100.00;101006.91;1710502;82;21034;-75
2022/10/28 04:35:44;;;;;;;5.10;3.20;;;;;;;9.42;100.00;101013.16;1710327;84;21516;-74
2022/10/28 04:38:14;;;;;;;6.30;3.17;;;;;;;9.42;100.00;101026.18;1710420;82;21512;-74
2022/10/28 04:40:42;;;;;;;8.00;3.30;;;;;;;9.44;100.00;101034.14;1710171;83;21054;-74
2022/10/28 04:43:10;;;;;;;8.15;3.30;;;;;;;9.44;100.00;101050.34;1710233;84;21078;-73
2022/10/28 04:45:38;;;;;;;5.90;3.50;;;;;;;9.44;100.00;101102.48;1714718;81;21064;-74
2022/10/28 04:48:05;;;;;;;3.47;2.90;;;;;;;9.46;100.00;101103.19;1716435;84;21074;-74
2022/10/28 04:50:32;;;;;;;4.13;3.07;;;;;;;9.47;100.00;101107.61;1717372;83;21484;-74
2022/10/28 04:53:00;;;;;;;5.70;3.43;;;;;;;9.47;100.00;101104.03;1721781;83;21023;-75
2022/10/28 04:55:26;;;;;;;4.43;3.13;;;;;;;9.46;100.00;101105.89;1721088;82;20991;-74
2022/10/28 04:57:57;;;;;;;6.50;3.90;;;;;;;9.47;100.00;101108.08;1739917;82;21567;-74
2022/10/28 05:00:24;;;;;;;6.83;3.27;;;;;;;9.47;100.00;101113.48;1741983;81;20973;-74
2022/10/28 05:02:51;;;;;;;3.90;3.22;;;;;;;9.46;100.00;101112.63;1758152;81;21041;-74
2022/10/28 05:05:17;;;;;;;4.80;3.20;;;;;;;9.48;100.00;101116.05;1767740;81;21016;-76
2022/10/28 05:07:45;;;;;;;5.57;3.00;;;;;;;9.48;100.00;101118.75;1781522;80;21022;-74
2022/10/28 05:10:16;;;;;;;3.23;2.93;;;;;;;9.51;100.00;101128.44;1783004;80;21026;-74
2022/10/28 05:12:44;;;;;;;18.20;6.53;;;;;;;9.53;100.00;101134.55;1782336;80;21096;-73
2022/10/28 05:15:11;;;;;;;8.23;3.60;;;;;;;9.57;100.00;101133.77;1755705;80;20923;-76
2022/10/28 05:17:42;;;;;;;10.73;4.03;;;;;;;9.60;100.00;101138.91;1766061;80;21035;-71
2022/10/28 05:20:09;;;;;;;6.03;3.73;;;;;;;9.63;100.00;101139.95;1769572;80;20982;-73
2022/10/28 05:22:37;;;;;;;4.40;3.20;;;;;;;9.65;100.00;101140.67;1781016;80;20990;-73
2022/10/28 05:25:04;;;;;;;11.70;4.13;;;;;;;9.68;100.00;101145.33;1780575;81;20986;-72
2022/10/28 05:27:31;;;;;;;6.67;3.50;;;;;;;9.72;100.00;101143.67;1780955;81;21014;-74
2022/10/28 05:29:58;;;;;;;6.90;3.20;;;;;;;9.72;100.00;101152.66;1780623;81;20970;-76
2022/10/28 05:32:25;;;;;;;6.10;3.50;;;;;;;9.73;100.00;101142.19;1781000;80;21006;-74
2022/10/28 05:34:52;;;;;;;5.67;3.37;;;;;;;9.75;100.00;101142.91;1764466;80;21002;-75
2022/10/28 05:37:19;;;;;;;6.60;3.10;;;;;;;9.77;100.00;101140.91;1764999;80;21089;-75
2022/10/28 05:39:46;;;;;;;5.10;2.70;;;;;;;9.80;100.00;101141.99;1758071;80;20998;-76
2022/10/28 05:42:12;;;;;;;3.73;3.23;;;;;;;9.83;100.00;101143.58;1774479;80;20986;-74
2022/10/28 05:44:39;;;;;;;5.43;3.43;;;;;;;9.86;100.00;101148.20;1760635;80;20991;-75
2022/10/28 05:47:06;;;;;;;3.95;2.90;;;;;;;9.89;100.00;101147.91;1768012;80;20993;-79
2022/10/28 05:49:33;;;;;;;7.33;3.35;;;;;;;9.92;100.00;101146.78;1772350;80;20935;-84
2022/10/28 05:52:00;;;;;;;6.43;3.30;;;;;;;9.94;100.00;101142.60;1770703;80;20989;-82
2022/10/28 05:54:26;;;;;;;5.42;3.20;;;;;;;9.98;100.00;101144.02;1769575;80;21018;-83
2022/10/28 05:56:53;;;;;;;6.87;3.70;;;;;;;9.98;100.00;101139.45;1777678;80;21416;-80
2022/10/28 05:59:22;;;;;;;6.10;3.13;;;;;;;9.99;100.00;101126.83;1771840;80;20983;-79
2022/10/28 06:01:49;;;;;;;16.90;12.27;;;;;;;10.00;100.00;101123.95;1737874;82;21106;-77
2022/10/28 06:04:16;;;;;;;35.88;17.73;;;;;;;10.00;100.00;101128.01;1786608;80;21014;-79
2022/10/28 06:06:45;;;;;;;33.73;20.45;;;;;;;10.01;100.00;101124.83;1785511;80;21069;-77
2022/10/28 06:09:11;;;;;;;21.67;10.97;;;;;;;10.04;100.00;101129.45;1784690;80;21042;-74
2022/10/28 06:11:39;;;;;;;22.77;11.03;;;;;;;10.08;100.00;101124.63;1783477;80;21002;-78
2022/10/28 06:14:06;;;;;;;16.05;7.80;;;;;;;10.14;100.00;101124.55;1781320;80;20999;-78
2022/10/28 06:16:33;;;;;;;8.80;4.30;;;;;;;10.18;100.00;101128.19;1781766;80;21063;-77
2022/10/28 06:19:01;;;;;;;9.23;5.53;;;;;;;10.23;100.00;101119.63;1782325;80;21014;-75
2022/10/28 06:21:27;;;;;;;18.67;7.62;;;;;;;10.28;100.00;101117.86;1779593;80;20986;-77
2022/10/28 06:23:54;;;;;;;20.23;10.25;;;;;;;10.28;100.00;101111.95;1750782;80;20987;-77
2022/10/28 06:26:21;;;;;;;20.00;11.50;;;;;;;10.32;100.00;101107.98;1785468;80;21065;-74
2022/10/28 06:28:50;;;;;;;17.33;8.10;;;;;;;10.40;100.00;101108.14;1784382;80;21006;-72
2022/10/28 06:31:17;;;;;;;16.17;7.35;;;;;;;10.46;100.00;101102.64;1785505;80;21007;-76
2022/10/28 06:33:45;;;;;;;8.38;5.20;;;;;;;10.45;100.00;101090.14;1786332;80;20998;-75
2022/10/28 06:36:12;;;;;;;23.85;12.37;;;;;;;10.48;100.00;101086.28;1786408;80;21041;-75
2022/10/28 06:38:40;;;;;;;9.80;4.92;;;;;;;10.50;100.00;101074.81;1786502;80;21515;-77
2022/10/28 06:41:07;;;;;;;13.78;6.75;;;;;;;10.49;100.00;101059.61;1786647;80;20997;-77
2022/10/28 06:43:33;;;;;;;6.40;4.08;;;;;;;10.52;100.00;101056.11;1786960;80;21072;-78
2022/10/28 06:46:02;;;;;;;8.58;4.35;;;;;;;10.63;100.00;101051.02;1786462;80;21499;-80
2022/10/28 06:48:30;;;;;;;6.87;4.65;;;;;;;10.75;100.00;101051.71;1787929;80;20970;-78
2022/10/28 06:50:58;;;;;;;7.87;4.55;;;;;;;10.86;100.00;101038.50;1786266;80;21065;-77
2022/10/28 06:53:25;;;;;;;8.70;4.70;;;;;;;10.96;100.00;101032.04;1761025;80;21018;-76
2022/10/28 06:55:53;;;;;;;22.73;14.25;;;;;;;11.04;100.00;101016.40;1785133;80;20994;-80
2022/10/28 06:58:21;;;;;;;15.30;8.20;;;;;;;11.09;100.00;100997.85;1773005;80;20972;-79
2022/10/28 07:00:48;;;;;;;11.55;5.85;;;;;;;11.09;100.00;100982.13;1773960;81;21070;-79
2022/10/28 07:03:15;;;;;;;5.95;4.65;;;;;;;11.09;100.00;100957.25;1767882;80;20983;-75
2022/10/28 07:05:42;;;;;;;7.92;5.10;;;;;;;11.10;100.00;100936.45;1772578;80;21615;-76
2022/10/28 07:08:10;;;;;;;5.03;3.35;;;;;;;11.13;100.00;100923.45;1781671;80;21168;-75
2022/10/28 07:22:00;;;;;;;5.22;3.12;;;;;;;11.67;100.00;100927.53;1821165;79;22849;-82
2022/10/28 07:24:27;;;;;;;4.97;3.30;;;;;;;11.78;100.00;100772.83;1806381;79;21541;-82
2022/10/28 07:26:54;;;;;;;4.17;3.42;;;;;;;11.81;100.00;100755.42;1806400;79;21081;-80
2022/10/28 07:29:21;;;;;;;6.75;3.35;;;;;;;11.86;100.00;100742.20;1805328;79;20985;-77
2022/10/28 07:31:48;;;;;;;24.32;10.10;;;;;;;11.89;100.00;100733.75;1802661;79;21016;-79
2022/10/28 07:34:16;;;;;;;34.98;14.07;;;;;;;11.96;100.00;100715.02;1805017;79;21040;-79
2022/10/28 07:36:43;;;;;;;8.35;4.37;;;;;;;12.04;100.00;100704.22;1795875;79;21036;-83
2022/10/28 07:39:13;;;;;;;8.13;4.28;;;;;;;12.15;100.00;100684.09;1776313;79;21005;-82
2022/10/28 07:41:41;;;;;;;5.97;3.35;;;;;;;12.27;100.00;100675.11;1770630;80;21056;-83
2022/10/28 07:44:08;;;;;;;6.17;3.72;;;;;;;12.32;100.00;100648.34;1813701;78;21045;-84
2022/10/28 07:46:36;;;;;;;5.35;3.12;;;;;;;12.32;100.00;100623.94;1750928;80;21115;-78
2022/10/28 07:49:04;;;;;;;6.37;3.02;;;;;;;12.25;100.00;100595.80;1791059;80;21082;-83
2022/10/28 07:51:31;;;;;;;5.72;3.67;;;;;;;12.21;100.00;100574.12;1801366;80;20985;-79
2022/10/28 07:53:59;;;;;;;9.40;4.12;;;;;;;12.12;100.00;100557.00;1800673;80;21028;-78
2022/10/28 07:56:26;;;;;;;9.80;4.20;;;;;;;12.06;100.00;100548.20;1801274;80;21359;-80
2022/10/28 07:58:54;;;;;;;6.50;4.00;;;;;;;12.00;100.00;100538.86;1801565;80;21064;-77
2022/10/28 08:01:21;;;;;;;6.97;4.25;;;;;;;11.96;100.00;100525.31;1800882;80;21084;-81
2022/10/28 08:03:48;;;;;;;5.92;3.58;;;;;;;11.95;100.00;100520.90;1801368;79;21089;-74
2022/10/28 08:06:18;;;;;;;21.27;8.15;;;;;;;11.89;100.00;100514.27;1801074;80;21589;-72
2022/10/28 08:08:48;;;;;;;11.20;5.22;;;;;;;11.89;100.00;100508.84;1801472;80;21020;-80
2022/10/28 08:11:18;;;;;;;6.15;4.00;;;;;;;11.95;100.00;100510.92;1793286;80;20969;-79
2022/10/28 08:13:46;;;;;;;8.90;4.55;;;;;;;11.98;100.00;100507.02;1796850;80;21074;-77
2022/10/28 08:16:14;;;;;;;7.67;5.05;;;;;;;12.04;100.00;100510.91;1762447;80;21035;-79
2022/10/28 08:18:41;;;;;;;7.12;3.67;;;;;;;12.08;100.00;100505.00;1796797;80;20948;-78
2022/10/28 08:21:11;;;;;;;4.80;3.30;;;;;;;12.09;100.00;100501.28;1790058;80;21118;-77
2022/10/28 08:23:38;;;;;;;7.45;4.67;;;;;;;12.06;100.00;100500.25;1819751;79;21006;-77
2022/10/28 08:26:04;;;;;;;11.18;5.75;;;;;;;12.00;100.00;100498.20;1803404;80;21000;-77
2022/10/28 08:28:31;;;;;;;8.15;4.50;;;;;;;12.02;100.00;100483.13;1819721;79;20979;-79
2022/10/28 08:31:02;;;;;;;8.48;3.83;;;;;;;12.08;100.00;100487.89;1803264;80;21097;-74
2022/10/28 08:33:32;;;;;;;4.80;3.25;;;;;;;12.12;100.00;100481.11;1819918;79;21025;-79
2022/10/28 08:35:59;;;;;;;6.15;3.65;;;;;;;12.12;100.00;100482.45;1803086;80;21113;-78
2022/10/28 08:38:26;;;;;;;6.72;3.45;;;;;;;12.13;100.00;100473.33;1820297;79;20982;-77
2022/10/28 08:41:27;;;;;;;5.65;4.05;;;;;;;12.14;100.00;100469.58;1803479;80;21132;-78
2022/10/28 08:44:29;;;;;;;7.20;4.33;;;;;;;12.20;100.00;100474.33;1820046;79;21033;-73
2022/10/28 08:47:24;;;;;;;10.35;5.12;;;;;;;12.38;100.00;100466.00;1803145;80;21520;-77
2022/10/28 08:49:59;;;;;;;7.97;5.10;;;;;;;12.58;100.00;100462.38;1785697;80;21077;-76
2022/10/28 08:53:18;;;;;;;7.40;4.58;;;;;;;12.67;100.00;100459.97;1804723;79;21059;-74
2022/10/28 08:55:47;;;;;;;9.30;4.42;;;;;;;12.71;100.00;100448.26;1705011;84;21050;-80
2022/10/28 08:58:24;;;;;;;7.10;3.75;;;;;;;12.73;100.00;100449.79;1704086;84;21086;-76
2022/10/28 09:00:54;;;;;;;11.75;4.60;;;;;;;12.77;100.00;100448.09;1705449;84;21061;-78
2022/10/28 09:03:24;;;;;;;7.92;4.00;;;;;;;12.81;100.00;100441.28;1710605;84;21170;-80
2022/10/28 09:06:06;;;;;;;10.58;4.10;;;;;;;12.81;100.00;100443.48;1682414;85;21054;-82
2022/10/28 09:08:36;;;;;;;6.03;3.95;;;;;;;12.71;100.00;100439.63;1712214;84;21062;-79
2022/10/28 09:11:14;;;;;;;10.88;5.12;;;;;;;12.75;100.00;100432.47;1682541;85;21034;-79
2022/10/28 09:13:59;;;;;;;7.97;4.10;;;;;;;12.83;100.00;100433.80;1711966;84;21085;-81
2022/10/28 09:16:40;;;;;;;6.05;3.95;;;;;;;12.92;100.00;100428.67;1681942;85;21046;-75
2022/10/28 09:19:36;;;;;;;6.15;3.80;;;;;;;13.04;100.00;100423.70;1711927;84;21085;-83
2022/10/28 09:22:19;;;;;;;9.03;3.52;;;;;;;13.17;100.00;100425.83;1698729;84;22423;-80
2022/10/28 09:25:12;;;;;;;9.73;4.80;;;;;;;13.28;100.00;100419.48;1734342;83;21004;-78
2022/10/28 09:28:27;;;;;;;10.13;6.30;;;;;;;13.32;100.00;100417.81;1701024;84;21130;-81
2022/10/28 09:31:14;;;;;;;8.75;5.20;;;;;;;13.24;100.00;100417.30;1685310;85;21098;-74
2022/10/28 09:33:56;;;;;;;7.53;3.85;;;;;;;13.15;100.00;100413.78;1702152;84;21011;-80
2022/10/28 09:36:34;;;;;;;5.00;3.22;;;;;;;13.11;100.00;100416.53;1701600;84;21038;-74
2022/10/28 09:39:01;;;;;;;4.22;3.00;;;;;;;13.04;100.00;100423.70;1733872;82;21033;-75
2022/10/28 09:41:35;;;;;;;6.15;3.40;;;;;;;12.97;100.00;100422.72;1756897;81;20990;-76
2022/10/28 09:44:35;;;;;;;5.47;3.20;;;;;;;12.96;100.00;100415.09;1756724;81;21152;-78
2022/10/28 09:47:02;;;;;;;4.72;2.92;;;;;;;12.94;100.00;100423.07;1757789;81;21033;-75
2022/10/28 09:49:34;;;;;;;5.45;3.33;;;;;;;13.02;100.00;100429.83;1743856;82;21056;-78
2022/10/28 09:52:23;;;;;;;5.30;3.40;;;;;;;13.04;100.00;100424.53;1691280;84;20971;-77
2022/10/28 09:54:52;;;;;;;6.60;2.95;;;;;;;13.03;100.00;100432.37;1714673;83;21093;-77
2022/10/28 09:57:22;;;;;;;4.17;3.20;;;;;;;13.06;100.00;100431.98;1677263;86;21022;-79
2022/10/28 09:59:49;;;;;;;6.58;3.08;;;;;;;13.13;100.00;100432.12;1708297;83;21305;-80
2022/10/28 10:02:32;;;;;;;5.03;3.10;;;;;;;13.21;100.00;100430.73;1715899;83;21013;-75
2022/10/28 10:05:01;;;;;;;4.78;3.02;;;;;;;13.29;100.00;100435.27;1712473;83;21037;-80
2022/10/28 10:07:40;;;;;;;4.30;3.55;;;;;;;13.33;100.00;100435.26;1710581;84;21020;-79
2022/10/28 10:10:22;;;;;;;5.53;3.65;;;;;;;13.34;100.00;100441.03;1678400;85;21026;-79
2022/10/28 10:12:51;;;;;;;3.10;2.60;;;;;;;13.32;100.00;100440.37;1717365;83;21065;-79
2022/10/28 10:15:33;;;;;;;4.28;2.90;;;;;;;13.27;100.00;100449.53;1708484;83;21041;-75
2022/10/28 10:18:04;;;;;;;4.15;2.70;;;;;;;13.21;100.00;100447.03;1620422;88;21037;-77
2022/10/28 10:20:57;;;;;;;5.67;3.12;;;;;;;13.19;100.00;100451.80;1649546;86;21006;-79
2022/10/28 10:23:36;;;;;;;5.10;3.52;;;;;;;13.21;100.00;100459.25;1671889;86;21637;-79
2022/10/28 10:26:10;;;;;;;4.10;3.10;;;;;;;13.19;100.00;100451.80;1663840;86;21574;-80
2022/10/28 10:28:48;;;;;;;4.95;3.40;;;;;;;13.22;100.00;100456.84;1641309;86;21081;-76
2022/10/28 10:31:20;;;;;;;5.20;3.00;;;;;;;13.19;100.00;100454.52;1587158;90;21043;-82
2022/10/28 10:33:55;;;;;;;2.87;2.50;;;;;;;13.14;100.00;100462.34;1561494;92;21022;-79
2022/10/28 10:36:30;;;;;;;10.75;5.05;;;;;;;13.07;100.00;100462.72;1563086;91;21082;-77
2022/10/28 10:38:59;;;;;;;5.35;3.10;;;;;;;13.03;100.00;100469.02;1566323;91;21083;-78
2022/10/28 10:41:42;;;;;;;3.25;2.77;;;;;;;13.03;100.00;100469.50;1562111;91;21057;-78
2022/10/28 10:44:25;;;;;;;11.22;4.00;;;;;;;13.03;100.00;100473.58;1560647;92;21121;-77
2022/10/28 10:47:07;;;;;;;6.17;2.80;;;;;;;13.02;100.00;100467.31;1558312;92;21085;-75
2022/10/28 10:49:34;;;;;;;5.00;3.10;;;;;;;13.00;100.00;100473.95;1568027;91;21079;-76
2022/10/28 10:52:24;;;;;;;12.53;4.12;;;;;;;12.95;100.00;100477.70;1557762;91;21108;-80
2022/10/28 10:55:04;;;;;;;8.90;3.50;;;;;;;12.91;100.00;100479.92;1565993;91;21137;-77
2022/10/28 10:57:32;;;;;;;12.25;4.50;;;;;;;12.85;100.00;100478.73;1565599;91;21077;-76
2022/10/28 10:59:59;;;;;;;6.28;3.87;;;;;;;12.81;100.00;100475.20;1566223;92;21101;-79
2022/10/28 11:02:32;;;;;;;7.55;3.70;;;;;;;12.75;100.00;100473.17;1525556;90;21109;-80
2022/10/28 11:05:02;;;;;;;8.00;3.55;;;;;;;12.73;100.00;100480.16;1582282;91;21123;-79
2022/10/28 11:07:29;;;;;;;7.47;3.77;;;;;;;12.71;100.00;100483.05;1579946;91;21204;-79
2022/10/28 11:09:56;;;;;;;4.58;3.10;;;;;;;12.65;100.00;100476.94;1581150;90;21084;-80
2022/10/28 11:12:30;;;;;;;7.50;3.75;;;;;;;12.65;100.00;100478.30;1591011;90;21092;-79
2022/10/28 11:15:01;;;;;;;7.67;3.83;;;;;;;12.69;100.00;100478.80;1620364;87;21078;-78
2022/10/28 11:17:33;;;;;;;6.97;3.80;;;;;;;12.76;100.00;100489.80;1560381;92;21082;-78
2022/10/28 11:20:19;;;;;;;9.93;4.30;;;;;;;12.80;100.00;100484.35;1560207;91;21633;-78
2022/10/28 11:23:28;;;;;;;6.95;3.62;;;;;;;12.81;100.00;100487.41;1560092;92;21094;-77
2022/10/28 11:25:59;;;;;;;7.58;4.35;;;;;;;12.82;100.00;100488.60;1565841;85;21066;-77
2022/10/28 11:28:54;;;;;;;6.83;3.80;;;;;;;12.87;100.00;100482.62;1637545;86;21117;-80
2022/10/28 11:31:38;;;;;;;7.70;3.00;;;;;;;12.89;100.00;100489.59;1664656;86;21514;-78
2022/10/28 11:34:35;;;;;;;3.95;3.22;;;;;;;12.85;100.00;100488.23;1564258;90;21071;-79
2022/10/28 11:37:54;;;;;;;4.58;3.30;;;;;;;12.78;100.00;100487.75;1572676;90;21596;-76
2022/10/28 11:40:51;;;;;;;7.17;3.67;;;;;;;12.76;100.00;100486.57;1591161;89;21040;-78
2022/10/28 11:43:29;;;;;;;3.95;3.10;;;;;;;12.83;100.00;100489.44;1589155;90;21084;-81
2022/10/28 11:46:27;;;;;;;3.98;2.85;;;;;;;12.86;100.00;100488.58;1588767;89;20983;-79
2022/10/28 11:49:27;;;;;;;5.15;3.20;;;;;;;12.82;100.00;100485.89;1587162;90;21061;-80
2022/10/28 11:52:01;;;;;;;3.00;2.58;;;;;;;12.82;100.00;100485.02;1588678;90;21024;-81
2022/10/28 11:55:07;;;;;;;4.90;3.05;;;;;;;12.84;100.00;100483.84;1587849;90;21119;-78
2022/10/28 11:57:48;;;;;;;3.85;3.10;;;;;;;12.89;100.00;100488.72;1584998;90;21031;-80
2022/10/28 12:00:39;;;;;;;7.60;4.05;;;;;;;12.94;100.00;100489.56;1587492;89;21059;-79
2022/10/28 12:03:41;;;;;;;7.45;4.22;;;;;;;12.96;100.00;100487.52;1585925;90;21051;-76